NY/NJ Local METAR Reports

No Warnings, Watches, or Advisories
KNYC - NYC/Central Park, NY, USA
Distance from station: NE 4mi, 7km
Updated: 05/06/2021 7:51am
Clear
Clear
 Wind from NW
Wind: NW 8 mph , 13 km/h, Gust: 20 mph , 31 km/h
Temperature: 52°F , 11°C
Dew Point: 39°F , 4°C
Humidity: 62%
Barometer: 29.97 inHg , 1014.9 hPa
Clouds: Clear
Visibility: 10 miles , 16 km
2021/05/06 11:51 KNYC 061151Z 31007G17KT 270V010 10SM CLR 11/04 A2997 RMK AO2 SLP138 70031 T01110039 10117 20100 51026
KEWR - Newark, NJ, USA
Distance from station: WSW 8mi, 13km
Updated: 05/06/2021 7:51am
Few Clouds
Few Clouds
 Wind from NW
Wind: NW 15 mph , 24 km/h, Gust: 29 mph , 46 km/h
Temperature: 55°F , 13°C
Dew Point: 39°F , 4°C
Humidity: 55%
Barometer: 29.95 inHg , 1014.2 hPa
Clouds: Few Clouds
Visibility: 10 miles , 16 km
Cloud details: Few Clouds 3500 ft
2021/05/06 11:51 KEWR 061151Z 32013G25KT 10SM FEW035 13/04 A2995 RMK AO2 SLP141 70026 T01280039 10128 20100 51024
 
KLGA - NYC/La Guardia, NY, USA
Distance from station: ENE 8mi, 13km
Updated: 05/06/2021 7:51am
Few Clouds
Few Clouds
 Wind from NW
Wind: NW 16 mph , 26 km/h
Temperature: 54°F , 12°C
Dew Point: 37°F , 3°C
Humidity: 54%
Barometer: 29.94 inHg , 1013.9 hPa
Clouds: Few Clouds
Visibility: 10 miles , 16 km
Cloud details: Few Clouds 4000 ft
2021/05/06 11:51 KLGA 061151Z 31014KT 10SM FEW040 12/03 A2994 RMK AO2 SLP137 70029 T01220033 10122 20111 52029
KTEB - Teterboro, NJ, USA
Distance from station: N 9mi, 14km
Updated: 05/06/2021 7:51am
Clear
Clear
 Wind from NW
Wind: NW 14 mph , 22 km/h, Gust: 25 mph , 41 km/h
Temperature: 52°F , 11°C
Dew Point: 39°F , 4°C
Humidity: 62%
Barometer: 29.94 inHg , 1013.9 hPa
Clouds: Clear
Visibility: 10 miles , 16 km
2021/05/06 11:51 KTEB 061151Z 32012G22KT 10SM CLR 11/04 A2994 RMK AO2 SLP138 70041 T01110039 10117 20083 51025
 
KJFK - NYC/Jfk Arpt, NY, USA
Distance from station: ESE 16mi, 25km
Updated: 05/06/2021 7:51am
Few Clouds
Few Clouds
 Wind from NNW
Wind: NNW 17 mph , 28 km/h, Gust: 26 mph , 43 km/h
Temperature: 55°F , 13°C
Dew Point: 39°F , 4°C
Humidity: 55%
Barometer: 29.94 inHg , 1013.9 hPa
Clouds: Few Clouds
Visibility: 10 miles , 16 km
Cloud details: Few Clouds 4500 ft
2021/05/06 11:51 KJFK 061151Z 33015G23KT 10SM FEW045 13/04 A2994 RMK AO2 SLP140 70030 T01280039 10128 20100 51026
KCDW - Caldwell, NJ, USA
Distance from station: NW 16mi, 26km
Updated: 05/06/2021 7:53am
Mostly cloudy
Mostly cloudy
 Wind from NW
Wind: NW 15 mph , 24 km/h, Gust: 21 mph , 33 km/h
Temperature: 54°F , 12°C
Dew Point: 37°F , 3°C
Humidity: 54%
Barometer: 29.97 inHg , 1014.9 hPa
Clouds: Mostly cloudy
Visibility: 10 miles , 16 km
Cloud details: Mostly cloudy 4000 ft
2021/05/06 11:53 KCDW 061153Z 31013G18KT 10SM BKN040 12/03 A2997 RMK AO2 SLP155 70032 T01170028 10122 20094 53031
 
KMMU - Morristown Muni, NJ, USA
Distance from station: W 20mi, 33km
Updated: 05/06/2021 7:45am
Partly cloudy
Partly cloudy
 Wind from NNW
Wind: NNW 10 mph , 17 km/h, Gust: 22 mph , 35 km/h
Temperature: 54°F , 12°C
Dew Point: 43°F , 6°C
Humidity: 67%
Barometer: 29.98 inHg , 1015.2 hPa
Clouds: Partly cloudy
Visibility: 10 miles , 16 km
Cloud details: Partly cloudy 3500 ft
2021/05/06 11:45 KMMU 061145Z 34009G19KT 10SM SCT035 12/06 A2998
KHPN - White Plains, NY, USA
Distance from station: NE 28mi, 46km
Updated: 05/06/2021 7:56am
Few Clouds
Few Clouds
 Wind from NW
Wind: NW 15 mph , 24 km/h, Gust: 22 mph , 35 km/h
Temperature: 52°F , 11°C
Dew Point: 39°F , 4°C
Humidity: 62%
Barometer: 29.92 inHg , 1013.2 hPa
Clouds: Few Clouds
Visibility: 10 miles , 16 km
Cloud details: Few Clouds 4600 ft
2021/05/06 11:56 KHPN 061156Z 32013G19KT 10SM FEW046 11/04 A2992 RMK AO2 SLP131 70026 T01060039 10106 20083 51028
 
KFRG - Farmingdale, NY, USA
Distance from station: E 32mi, 52km
Updated: 05/06/2021 7:53am
Clear
Clear
 Wind from NW
Wind: NW 10 mph , 17 km/h, Gust: 18 mph , 30 km/h
Temperature: 54°F , 12°C
Dew Point: 41°F , 5°C
Humidity: 63%
Barometer: 29.93 inHg , 1013.5 hPa
Clouds: Clear
Visibility: 10 miles , 16 km
2021/05/06 11:53 KFRG 061153Z AUTO 32009G16KT 10SM CLR 12/05 A2993 RMK AO2 SLP135 70018 T01220050 10122 20094 51028
KSMQ - Somerville, NJ, USA
Distance from station: WSW 34mi, 55km
Updated: 05/06/2021 7:53am
Overcast
Overcast
 Wind from N
Wind: N 12 mph , 19 km/h, Gust: 17 mph , 28 km/h
Temperature: 54°F , 12°C
Dew Point: 39°F , 4°C
Humidity: 58%
Barometer: 29.97 inHg , 1014.9 hPa
Clouds: Overcast
Cloud details: Partly cloudy 4300 ft
Overcast 5000 ft
2021/05/06 11:53 KSMQ 061153Z AUTO 01010G15KT SCT043 OVC050 12/04 A2997 RMK AO2 SLP147 70044 T01170044 10122 20056 51028 $
 
KBLM - Belmar/Farmdale, NJ, USA
Distance from station: S 40mi, 64km
Updated: 05/06/2021 7:56am
Clear
Clear
 Wind from WNW
Wind: WNW 14 mph , 22 km/h
Temperature: 54°F , 12°C
Dew Point: 41°F , 5°C
Humidity: 63%
Barometer: 29.97 inHg , 1014.9 hPa
Clouds: Clear
Visibility: 10 miles , 16 km
2021/05/06 11:56 KBLM 061156Z AUTO 30012KT 10SM CLR 12/05 A2997 RMK AO2 SLP149 6//// 7//// T01170050 10117 20083 51023 PNO $
K12N - Andover, NJ, USA
Distance from station: WNW 41mi, 67km
Updated: 05/06/2021 7:54am

 Wind from varies
Wind: varies 7 mph , 11 km/h
Temperature: 50°F , 10°C
Wind Chill: 47°F , 8°C
Dew Point: 39°F , 4°C
Humidity: 67%
Barometer: 29.98 inHg , 1015.2 hPa
2021/05/06 11:54 K12N 061154Z AUTO VRB06KT 10/04 A2998 RMK AO1 SLP152 70039 T01000039 10106 20072 51026
 
KFWN - Sussex, NJ, USA
Distance from station: NW 45mi, 72km
Updated: 05/06/2021 7:53am
Partly cloudy
Partly cloudy
 Wind from varies
Wind: varies 5 mph , 7 km/h
Temperature: 52°F , 11°C
Dew Point: 39°F , 4°C
Humidity: 62%
Barometer: 29.98 inHg , 1015.2 hPa
Clouds: Partly cloudy
Visibility: 10 miles , 16 km
Cloud details: Partly cloudy 3200 ft
2021/05/06 11:53 KFWN 061153Z AUTO VRB04KT 10SM SCT032 11/04 A2998 RMK AO2 SLP151 70045 T01060044 10106 20089 51026
KISP - Islip, NY, USA
Distance from station: E 49mi, 79km
Updated: 05/06/2021 7:56am
Clear
Clear
 Wind from NW
Wind: NW 15 mph , 24 km/h, Gust: 23 mph , 37 km/h
Temperature: 52°F , 11°C
Dew Point: 43°F , 6°C
Humidity: 72%
Barometer: 29.91 inHg , 1012.9 hPa
Clouds: Clear
Visibility: 10 miles , 16 km
2021/05/06 11:56 KISP 061156Z 32013G20KT 10SM CLR 11/06 A2991 RMK AO2 SLP129 70016 T01110056 10111 20083 51026